createdAt,value
2019-03-28T00:01:21.386Z,7.30
2019-03-28T00:03:56.964Z,7.30
2019-03-28T00:06:39.785Z,7.30
2019-03-28T00:09:15.999Z,7.40
2019-03-28T00:11:58.947Z,7.40
2019-03-28T00:14:35.026Z,7.40
2019-03-28T00:17:18.009Z,7.30
2019-03-28T00:19:54.215Z,7.40
2019-03-28T00:22:38.465Z,7.40
2019-03-28T00:25:19.256Z,7.40
2019-03-28T00:28:01.724Z,7.50
2019-03-28T00:30:38.266Z,7.50
2019-03-28T00:33:21.047Z,7.50
2019-03-28T00:36:03.926Z,7.50
2019-03-28T00:38:46.489Z,7.40
2019-03-28T00:41:22.725Z,7.40
2019-03-28T00:44:05.651Z,7.50
2019-03-28T00:46:41.779Z,7.60
2019-03-28T00:49:38.090Z,7.50
2019-03-28T00:52:20.751Z,7.40
2019-03-28T00:54:56.873Z,7.40
2019-03-28T00:57:39.909Z,7.30
2019-03-28T01:00:17.073Z,7.30
2019-03-28T01:03:07.245Z,7.40
2019-03-28T01:05:50.334Z,7.50
2019-03-28T01:08:40.049Z,7.50
2019-03-28T01:13:49.378Z,7.50
2019-03-28T01:16:39.499Z,7.60
2019-03-28T01:19:08.211Z,7.60
2019-03-28T01:21:50.618Z,7.60
2019-03-28T01:24:32.923Z,7.60
2019-03-28T01:27:08.870Z,7.70
2019-03-28T01:29:51.427Z,7.60
2019-03-28T01:32:27.745Z,7.60
2019-03-28T01:35:11.640Z,7.60
2019-03-28T01:37:54.541Z,7.60
2019-03-28T01:40:43.681Z,7.50
2019-03-28T01:43:27.194Z,7.50
2019-03-28T01:46:03.061Z,7.40
2019-03-28T01:48:52.458Z,7.50
2019-03-28T01:51:34.699Z,7.40
2019-03-28T01:54:10.508Z,7.40
2019-03-28T01:56:52.577Z,7.40
2019-03-28T01:59:34.878Z,7.40
2019-03-28T02:02:16.771Z,7.40
2019-03-28T02:04:59.080Z,7.30
2019-03-28T02:07:41.506Z,7.40
2019-03-28T02:10:24.409Z,7.30
2019-03-28T02:13:06.953Z,7.30
2019-03-28T02:15:42.568Z,7.30
2019-03-28T02:18:25.892Z,7.30
2019-03-28T02:21:09.672Z,7.40
2019-03-28T02:23:45.543Z,7.50
2019-03-28T02:26:28.273Z,7.50
2019-03-28T02:29:17.903Z,7.50
2019-03-28T02:32:00.196Z,7.50
2019-03-28T02:34:35.981Z,7.40
2019-03-28T02:37:18.886Z,7.50
2019-03-28T02:39:54.921Z,7.40
2019-03-28T02:42:38.115Z,7.30
2019-03-28T02:45:15.374Z,7.30
2019-03-28T02:47:57.254Z,7.30
2019-03-28T02:50:40.445Z,7.20
2019-03-28T02:53:22.931Z,7.30
2019-03-28T02:55:59.000Z,7.20
2019-03-28T02:58:41.610Z,7.30
2019-03-28T03:01:18.084Z,7.20
2019-03-28T03:04:00.655Z,7.30
2019-03-28T03:06:43.302Z,7.20
2019-03-28T03:09:11.122Z,7.20
2019-03-28T03:11:54.262Z,7.20
2019-03-28T03:14:37.518Z,7.30
2019-03-28T03:17:20.099Z,7.30
2019-03-28T03:22:30.416Z,7.30
2019-03-28T03:25:09.466Z,7.30
2019-03-28T03:27:58.725Z,7.30
2019-03-28T03:30:36.592Z,7.30
2019-03-28T03:33:13.037Z,7.40
2019-03-28T03:35:54.896Z,7.40
2019-03-28T03:38:31.215Z,7.30
2019-03-28T03:43:42.302Z,7.20
2019-03-28T03:46:25.372Z,7.30
2019-03-28T03:48:53.190Z,7.10
2019-03-28T03:51:35.782Z,7.00
2019-03-28T03:54:11.551Z,7.00
2019-03-28T03:56:53.953Z,6.90
2019-03-28T03:59:30.307Z,6.90
2019-03-28T04:04:39.636Z,6.80
2019-03-28T04:07:15.163Z,6.80
2019-03-28T04:09:50.057Z,6.70
2019-03-28T04:12:25.644Z,6.50
2019-03-28T04:15:08.416Z,6.60
2019-03-28T04:17:44.488Z,6.70
2019-03-28T04:20:26.983Z,6.50
2019-03-28T04:23:09.941Z,6.30
2019-03-28T04:25:52.267Z,6.30
2019-03-28T04:28:32.185Z,6.40
2019-03-28T04:33:38.577Z,6.40
2019-03-28T04:36:14.774Z,6.40
2019-03-28T04:38:41.772Z,6.40
2019-03-28T04:41:31.362Z,6.30
2019-03-28T04:43:59.175Z,6.30
2019-03-28T04:49:08.859Z,6.60
2019-03-28T04:51:45.213Z,6.60
2019-03-28T04:54:28.021Z,6.60
2019-03-28T04:57:04.451Z,6.60
2019-03-28T04:59:47.817Z,6.50
2019-03-28T05:02:24.257Z,6.50
2019-03-28T05:05:06.644Z,6.50
2019-03-28T05:07:42.729Z,6.50
2019-03-28T05:10:25.347Z,6.60
2019-03-28T05:13:08.404Z,6.50
2019-03-28T05:15:51.071Z,6.50
2019-03-28T05:18:19.744Z,6.50
2019-03-28T05:23:30.151Z,6.60
2019-03-28T05:26:05.132Z,6.50
2019-03-28T05:28:33.795Z,6.50
2019-03-28T05:31:16.737Z,6.50
2019-03-28T05:33:58.677Z,6.50
2019-03-28T05:36:35.083Z,6.50
2019-03-28T05:44:13.753Z,6.60
2019-03-28T05:46:50.152Z,6.60
2019-03-28T05:49:32.645Z,6.70
2019-03-28T05:52:11.601Z,6.70
2019-03-28T05:54:52.838Z,6.70
2019-03-28T05:57:28.583Z,6.60
2019-03-28T06:00:11.506Z,6.60
2019-03-28T06:02:48.119Z,6.50
2019-03-28T06:05:31.032Z,6.60
2019-03-28T06:08:12.985Z,6.60
2019-03-28T06:13:23.309Z,6.70
2019-03-28T06:21:03.214Z,6.80
2019-03-28T06:23:46.144Z,6.90
2019-03-28T06:26:28.879Z,6.90
2019-03-28T06:29:08.390Z,7.00
2019-03-28T06:31:55.524Z,7.00
2019-03-28T06:34:27.668Z,7.10
2019-03-28T06:37:10.163Z,7.20
2019-03-28T06:39:46.615Z,7.30
2019-03-28T06:42:29.114Z,7.40
2019-03-28T06:45:11.832Z,7.60
2019-03-28T06:47:53.709Z,7.70
2019-03-28T06:50:22.370Z,7.70
2019-03-28T06:53:04.926Z,7.50
2019-03-28T06:55:46.990Z,7.60
2019-03-28T06:58:22.783Z,7.60
2019-03-28T07:01:04.964Z,7.60
2019-03-28T07:03:48.054Z,7.70
2019-03-28T07:06:30.746Z,7.90
2019-03-28T07:09:12.951Z,8.10
2019-03-28T07:11:40.776Z,8.20
2019-03-28T07:14:22.128Z,8.30
2019-03-28T07:16:58.518Z,8.30
2019-03-28T07:22:08.017Z,8.40
2019-03-28T07:24:51.106Z,8.50
2019-03-28T07:27:27.123Z,8.50
2019-03-28T07:30:09.960Z,8.60
2019-03-28T07:32:45.870Z,8.40
2019-03-28T07:35:28.717Z,8.40
2019-03-28T07:38:04.634Z,8.50
2019-03-28T07:40:47.153Z,8.50
2019-03-28T07:43:25.204Z,8.40
2019-03-28T07:46:07.165Z,8.40
2019-03-28T07:48:42.958Z,8.50
2019-03-28T07:51:26.311Z,8.50
2019-03-28T07:54:01.905Z,8.60
2019-03-28T07:56:44.350Z,8.70
2019-03-28T07:59:26.973Z,8.60
2019-03-28T08:02:03.179Z,8.80
2019-03-28T08:04:45.628Z,8.80
2019-03-28T08:07:21.788Z,9.10
2019-03-28T08:10:04.396Z,9.00
2019-03-28T08:12:40.314Z,8.90
2019-03-28T08:15:16.830Z,9.20
2019-03-28T08:18:00.110Z,9.30
2019-03-28T08:20:42.741Z,9.50
2019-03-28T08:23:25.147Z,9.50
2019-03-28T08:26:01.636Z,9.80
2019-03-28T08:28:44.833Z,10.00
2019-03-28T08:31:27.433Z,10.30
2019-03-28T08:34:09.735Z,10.80
2019-03-28T08:36:46.151Z,11.10
2019-03-28T08:39:29.320Z,11.40
2019-03-28T08:42:05.830Z,11.70
2019-03-28T08:44:48.660Z,11.80
2019-03-28T08:47:24.415Z,11.60
2019-03-28T08:50:06.625Z,11.60
2019-03-28T08:52:42.805Z,11.50
2019-03-28T08:55:25.215Z,11.60
2019-03-28T08:58:08.185Z,11.60
2019-03-28T09:03:09.737Z,11.60
2019-03-28T09:05:52.288Z,11.50
2019-03-28T09:08:19.317Z,11.40
2019-03-28T09:10:53.358Z,11.40
2019-03-28T09:13:42.578Z,11.50
2019-03-28T09:16:24.730Z,11.40
2019-03-28T09:19:00.611Z,11.20
2019-03-28T09:21:43.518Z,11.30
2019-03-28T09:24:19.457Z,11.40
2019-03-28T09:27:01.128Z,11.50
2019-03-28T09:29:43.392Z,11.60
2019-03-28T09:32:19.336Z,11.80
2019-03-28T09:35:02.018Z,12.10
2019-03-28T09:37:37.652Z,12.20
2019-03-28T09:40:14.500Z,12.40
2019-03-28T09:42:50.465Z,12.80
2019-03-28T09:45:32.955Z,12.90
2019-03-28T09:48:11.672Z,13.10
2019-03-28T09:50:53.262Z,13.20
2019-03-28T09:53:29.280Z,13.50
2019-03-28T09:56:11.860Z,13.50
2019-03-28T09:58:47.401Z,13.70
2019-03-28T10:01:30.303Z,13.80
2019-03-28T10:03:59.034Z,13.80
2019-03-28T10:06:41.646Z,13.90
2019-03-28T10:09:24.746Z,14.00
2019-03-28T10:11:53.548Z,14.20
2019-03-28T10:14:36.290Z,14.20
2019-03-28T10:17:18.803Z,14.20
2019-03-28T10:19:54.931Z,13.90
2019-03-28T10:22:37.299Z,14.00
2019-03-28T10:25:22.840Z,13.90
2019-03-28T10:28:05.992Z,13.90
2019-03-28T10:30:50.763Z,14.00
2019-03-28T10:33:32.941Z,14.20
2019-03-28T10:36:15.050Z,14.30
2019-03-28T10:38:57.569Z,14.50
2019-03-28T10:41:46.299Z,14.10
2019-03-28T10:44:22.373Z,14.00
2019-03-28T10:47:05.193Z,13.90
2019-03-28T10:49:47.812Z,13.90
2019-03-28T10:52:29.832Z,14.20
2019-03-28T10:54:57.673Z,14.40
2019-03-28T11:00:08.151Z,14.50
2019-03-28T11:02:44.157Z,14.70
2019-03-28T11:05:34.114Z,14.50
2019-03-28T11:10:44.425Z,13.90
2019-03-28T11:13:19.333Z,13.80
2019-03-28T11:18:29.859Z,13.90
2019-03-28T11:21:19.594Z,13.90
2019-03-28T11:24:01.941Z,14.10
2019-03-28T11:26:37.754Z,14.10
2019-03-28T11:29:20.796Z,14.10
2019-03-28T11:31:56.818Z,14.00
2019-03-28T11:34:39.553Z,13.80
2019-03-28T11:37:26.026Z,13.50
2019-03-28T11:40:00.307Z,13.90
2019-03-28T11:42:36.652Z,14.20
2019-03-28T11:45:20.282Z,14.10
2019-03-28T11:47:56.696Z,13.70
2019-03-28T11:50:39.697Z,13.70
2019-03-28T11:53:15.582Z,13.60
2019-03-28T11:55:58.246Z,13.50
2019-03-28T11:58:34.697Z,13.10
2019-03-28T12:01:16.786Z,13.00
2019-03-28T12:03:53.272Z,13.30
2019-03-28T12:06:35.926Z,13.50
2019-03-28T12:09:20.969Z,13.50
2019-03-28T12:12:02.942Z,13.50
2019-03-28T12:14:38.850Z,13.70
2019-03-28T12:17:22.073Z,13.70
2019-03-28T12:19:57.920Z,13.80
2019-03-28T12:22:40.954Z,14.00
2019-03-28T12:25:23.583Z,14.00
2019-03-28T12:28:00.534Z,14.30
2019-03-28T12:30:36.808Z,14.40
2019-03-28T12:36:40.581Z,14.50
2019-03-28T12:39:23.019Z,14.60
2019-03-28T12:42:05.211Z,14.60
2019-03-28T12:47:09.754Z,14.30
2019-03-28T12:49:45.425Z,14.10
2019-03-28T12:52:29.991Z,14.20
2019-03-28T12:55:15.111Z,14.30
2019-03-28T12:57:57.793Z,14.30
2019-03-28T13:00:44.590Z,14.40
2019-03-28T13:03:21.165Z,14.40
2019-03-28T13:06:03.687Z,14.30
2019-03-28T13:08:39.712Z,14.30
2019-03-28T13:11:22.087Z,14.50
2019-03-28T13:13:58.013Z,14.60
2019-03-28T13:16:41.138Z,14.60
2019-03-28T13:19:17.680Z,14.50
2019-03-28T13:22:00.216Z,14.50
2019-03-28T13:24:42.263Z,14.40
2019-03-28T13:27:18.415Z,14.40
2019-03-28T13:30:00.655Z,14.50
2019-03-28T13:32:41.106Z,14.40
2019-03-28T13:35:15.935Z,14.30
2019-03-28T13:37:44.680Z,14.30
2019-03-28T13:42:55.409Z,14.10
2019-03-28T13:45:37.453Z,14.20
2019-03-28T13:48:14.021Z,14.20
2019-03-28T13:50:55.815Z,14.20
2019-03-28T13:53:39.769Z,13.90
2019-03-28T13:56:07.243Z,14.10
2019-03-28T14:01:16.953Z,14.10
2019-03-28T14:03:59.187Z,14.10
2019-03-28T14:06:34.728Z,14.10
2019-03-28T14:09:19.670Z,14.10
2019-03-28T14:11:55.437Z,13.90
2019-03-28T14:14:40.018Z,13.90
2019-03-28T14:17:21.205Z,14.00
2019-03-28T14:19:49.958Z,14.00
2019-03-28T14:22:32.968Z,14.00
2019-03-28T14:25:22.101Z,13.90
2019-03-28T14:28:04.921Z,13.60
2019-03-28T14:30:41.299Z,13.60
2019-03-28T14:33:26.993Z,13.60
2019-03-28T14:36:14.903Z,13.60
2019-03-28T14:43:51.262Z,13.90
2019-03-28T14:46:27.677Z,14.00
2019-03-28T14:49:10.705Z,13.90
2019-03-28T14:51:54.336Z,13.90
2019-03-28T14:54:36.948Z,13.80
2019-03-28T14:59:48.657Z,13.70
2019-03-28T15:02:30.780Z,13.70
2019-03-28T15:05:13.925Z,13.80
2019-03-28T15:07:56.105Z,13.70
2019-03-28T15:10:32.035Z,13.70
2019-03-28T15:13:14.564Z,13.90
2019-03-28T15:15:57.308Z,14.00
2019-03-28T15:18:33.030Z,14.10
2019-03-28T15:21:15.472Z,14.00
2019-03-28T15:23:43.295Z,13.90
2019-03-28T15:26:25.778Z,13.70
2019-03-28T15:29:08.937Z,13.70
2019-03-28T15:31:44.630Z,13.80
2019-03-28T15:34:27.009Z,13.70
2019-03-28T15:37:09.782Z,13.60
2019-03-28T15:42:19.890Z,13.30
2019-03-28T15:47:30.977Z,13.10
2019-03-28T15:50:13.829Z,12.90
2019-03-28T15:52:41.661Z,12.80
2019-03-28T15:55:24.219Z,12.70
2019-03-28T15:58:00.244Z,12.70
2019-03-28T16:03:10.646Z,12.60
2019-03-28T16:05:57.669Z,12.50
2019-03-28T16:08:31.405Z,12.50
2019-03-28T16:11:07.746Z,12.50
2019-03-28T16:13:50.129Z,12.40
2019-03-28T16:16:32.810Z,12.50
2019-03-28T16:19:08.571Z,12.40
2019-03-28T16:21:51.225Z,12.40
2019-03-28T16:24:27.316Z,12.40
2019-03-28T16:27:10.376Z,12.40
2019-03-28T16:29:46.042Z,12.30
2019-03-28T16:32:29.042Z,12.30
2019-03-28T16:35:07.244Z,12.20
2019-03-28T16:37:51.100Z,12.30
2019-03-28T16:40:27.295Z,12.20
2019-03-28T16:48:04.887Z,12.10
2019-03-28T16:50:48.400Z,12.00
2019-03-28T16:53:24.821Z,12.00
2019-03-28T16:58:36.196Z,11.80
2019-03-28T17:01:18.602Z,11.80
2019-03-28T17:03:46.411Z,11.70
2019-03-28T17:06:29.973Z,11.70
2019-03-28T17:09:07.334Z,11.70
2019-03-28T17:11:50.050Z,11.60
2019-03-28T17:14:26.651Z,11.60
2019-03-28T17:17:09.009Z,11.50
2019-03-28T17:19:45.432Z,11.40
2019-03-28T17:22:28.411Z,11.40
2019-03-28T17:25:04.875Z,11.40
2019-03-28T17:27:32.717Z,11.30
2019-03-28T17:30:15.811Z,11.30
2019-03-28T17:32:51.946Z,11.20
2019-03-28T17:35:34.823Z,11.00
2019-03-28T17:38:17.653Z,10.90
2019-03-28T17:40:53.221Z,10.80
2019-03-28T17:43:35.699Z,10.80
2019-03-28T17:46:18.345Z,10.70
2019-03-28T17:48:47.347Z,10.60
2019-03-28T17:51:30.105Z,10.40
2019-03-28T17:54:19.057Z,10.30
2019-03-28T17:57:01.962Z,10.10
2019-03-28T17:59:37.460Z,10.00
2019-03-28T18:02:20.323Z,9.90
2019-03-28T18:05:08.585Z,9.90
2019-03-28T18:07:41.742Z,9.80
2019-03-28T18:10:18.046Z,9.80
2019-03-28T18:13:01.580Z,9.70
2019-03-28T18:15:38.326Z,9.80
2019-03-28T18:18:14.904Z,9.70
2019-03-28T18:20:42.743Z,9.80
2019-03-28T18:23:10.579Z,9.70
2019-03-28T18:25:54.072Z,9.60
2019-03-28T18:28:37.097Z,9.50
2019-03-28T18:31:12.707Z,9.40
2019-03-28T18:33:56.073Z,9.30
2019-03-28T18:36:32.187Z,9.30
2019-03-28T18:39:14.820Z,9.20
2019-03-28T18:41:57.660Z,9.10
2019-03-28T18:49:38.055Z,8.90
2019-03-28T18:52:19.967Z,8.80
2019-03-28T18:54:56.369Z,8.70
2019-03-28T18:57:39.824Z,8.70
2019-03-28T19:00:23.490Z,8.70
2019-03-28T19:02:51.151Z,8.80
2019-03-28T19:05:33.772Z,8.80
2019-03-28T19:08:16.976Z,8.80
2019-03-28T19:10:59.053Z,8.80
2019-03-28T19:13:34.593Z,8.80
2019-03-28T19:16:17.659Z,8.80
2019-03-28T19:19:00.143Z,8.80
2019-03-28T19:21:43.518Z,8.80
2019-03-28T19:24:19.597Z,8.80
2019-03-28T19:27:03.009Z,8.80
2019-03-28T19:32:13.306Z,8.70
2019-03-28T19:35:03.397Z,8.70
2019-03-28T19:40:17.192Z,8.60
2019-03-28T19:42:59.607Z,8.50
2019-03-28T19:45:27.438Z,8.50
2019-03-28T19:47:55.281Z,8.40
2019-03-28T19:50:37.224Z,8.40
2019-03-28T19:53:13.465Z,8.30
2019-03-28T19:55:56.068Z,8.30
2019-03-28T19:58:35.135Z,8.40
2019-03-28T20:01:17.133Z,8.40
2019-03-28T20:03:55.069Z,8.30
2019-03-28T20:06:37.851Z,8.30
2019-03-28T20:14:17.863Z,8.10
2019-03-28T20:17:06.482Z,8.00
2019-03-28T20:19:42.424Z,8.00
2019-03-28T20:27:27.408Z,7.90
2019-03-28T20:30:09.239Z,7.80
2019-03-28T20:32:45.042Z,7.80
2019-03-28T20:35:27.121Z,7.80
2019-03-28T20:38:03.863Z,7.80
2019-03-28T20:40:46.689Z,7.70
2019-03-28T20:43:23.295Z,7.60
2019-03-28T20:46:12.876Z,7.60
2019-03-28T20:53:51.850Z,7.50
2019-03-28T20:56:28.156Z,7.50
2019-03-28T20:59:10.615Z,7.50
2019-03-28T21:01:47.013Z,7.40
2019-03-28T21:04:31.521Z,7.30
2019-03-28T21:07:07.284Z,7.20
2019-03-28T21:09:50.064Z,7.20
2019-03-28T21:12:26.075Z,7.20
2019-03-28T21:15:08.775Z,7.20
2019-03-28T21:17:44.706Z,7.10
2019-03-28T21:20:27.907Z,7.10
2019-03-28T21:23:05.331Z,7.10
2019-03-28T21:25:48.365Z,7.10
2019-03-28T21:28:47.132Z,7.00
2019-03-28T21:31:22.223Z,6.90
2019-03-28T21:33:54.567Z,6.90
2019-03-28T21:36:34.944Z,6.80
2019-03-28T21:39:09.677Z,6.70
2019-03-28T21:41:38.416Z,6.70
2019-03-28T21:44:22.879Z,6.70
2019-03-28T21:47:05.731Z,6.70
2019-03-28T21:49:41.798Z,6.60
2019-03-28T21:52:24.244Z,6.60
2019-03-28T21:55:00.404Z,6.60
2019-03-28T21:57:42.844Z,6.50
2019-03-28T22:00:19.625Z,6.50
2019-03-28T22:03:03.103Z,6.60
2019-03-28T22:05:39.222Z,6.70
2019-03-28T22:08:21.856Z,6.80
2019-03-28T22:10:58.214Z,6.80
2019-03-28T22:13:40.726Z,6.90
2019-03-28T22:16:17.107Z,6.90
2019-03-28T22:18:59.899Z,7.00
2019-03-28T22:21:36.228Z,7.10
2019-03-28T22:24:18.249Z,7.10
2019-03-28T22:27:01.289Z,7.30
2019-03-28T22:29:44.711Z,7.30
2019-03-28T22:32:34.407Z,7.30
2019-03-28T22:35:17.142Z,7.40
2019-03-28T22:37:45.811Z,7.50
2019-03-28T22:40:28.547Z,7.40
2019-03-28T22:48:11.212Z,7.50
2019-03-28T22:50:45.645Z,7.70
2019-03-28T22:58:21.401Z,7.70
2019-03-28T23:01:00.112Z,7.80
2019-03-28T23:03:43.095Z,7.70
2019-03-28T23:06:26.194Z,7.70
2019-03-28T23:09:08.085Z,7.70
2019-03-28T23:14:18.961Z,7.70
2019-03-28T23:17:08.668Z,7.70
2019-03-28T23:19:44.430Z,7.70
2019-03-28T23:27:22.745Z,7.70
2019-03-28T23:30:04.539Z,7.60
2019-03-28T23:32:40.399Z,7.60
2019-03-28T23:35:22.233Z,7.70
2019-03-28T23:38:04.934Z,7.60
2019-03-28T23:40:47.265Z,7.60
2019-03-28T23:43:23.300Z,7.50
2019-03-28T23:46:05.637Z,7.50
2019-03-28T23:48:49.027Z,7.50
2019-03-28T23:53:58.408Z,7.40
2019-03-28T23:56:40.760Z,7.40
2019-03-28T23:59:22.318Z,7.40
